Smyrna, Georgia
Current Conditions -  °F | °C
As of 2:58 AM on Sunday 26 Oct 2014 (Local Time) from KMGE Reporting Station
Clear Clear  
Wind Chill: 61°   Ceiling: Unl
Heat Index: 61°   Visibility: 10mi
Dew Point: 56°   Wind: 7mph
Humidity: 85%   Direction: 260°W
Pressure: 30"   Gusts: NA
Location:  33.88°N, 84.51°W
Report Text: KMGE 260658Z AUTO 26006KT 10SM CLR 16/13 A3000 RMK AO2 SLP153 T01590134 $
Loading
Personal Weather Stations






























Interactive Weather Map New forecast layout! Learn more

10-Day Weather Forecast

Advertisements
Track Severe Weather on mobile